createdAt,value
2023-04-05T00:01:53.513Z,99104.25
2023-04-05T00:04:23.733Z,99102.78
2023-04-05T00:06:52.597Z,99105.59
2023-04-05T00:09:20.701Z,99100.56
2023-04-05T00:11:48.049Z,99092.22
2023-04-05T00:14:15.034Z,99099.38
2023-04-05T00:16:42.021Z,99091.69
2023-04-05T00:19:09.023Z,99090.47
2023-04-05T00:21:35.620Z,99091.38
2023-04-05T00:24:02.730Z,99093.53
2023-04-05T00:26:29.226Z,99083.41
2023-04-05T00:28:57.357Z,99080.06
2023-04-05T00:31:23.934Z,99078.78
2023-04-05T00:33:50.577Z,99079.16
2023-04-05T00:36:19.171Z,99083.31
2023-04-05T00:38:47.318Z,99081.88
2023-04-05T00:41:14.373Z,99082.81
2023-04-05T00:43:41.343Z,99075.75
2023-04-05T00:46:08.923Z,99077.69
2023-04-05T00:48:36.304Z,99079.38
2023-04-05T00:51:03.190Z,99076.25
2023-04-05T00:53:30.328Z,99082.94
2023-04-05T00:55:57.949Z,99079.88
2023-04-05T00:58:24.668Z,99080.38
2023-04-05T01:01:06.774Z,99072.31
2023-04-05T01:03:36.978Z,99075.94
2023-04-05T01:06:43.005Z,99070.94
2023-04-05T01:09:17.812Z,99062.56
2023-04-05T01:11:47.255Z,99070.03
2023-04-05T01:14:14.251Z,99065.03
2023-04-05T01:16:40.768Z,99059.13
2023-04-05T01:19:09.946Z,99068.53
2023-04-05T01:21:38.029Z,99061.69
2023-04-05T01:24:25.929Z,99056.16
2023-04-05T01:27:14.285Z,99052.06
2023-04-05T01:30:04.307Z,99045.03
2023-04-05T01:32:46.740Z,99048.03
2023-04-05T01:35:22.101Z,99042.81
2023-04-05T01:37:57.745Z,99047.00
2023-04-05T01:40:24.633Z,99047.41
2023-04-05T01:42:51.111Z,99051.84
2023-04-05T01:45:17.557Z,99054.34
2023-04-05T01:47:44.157Z,99057.63
2023-04-05T01:50:10.938Z,99053.06
2023-04-05T01:52:37.432Z,99049.47
2023-04-05T01:55:04.201Z,99057.63
2023-04-05T01:57:30.941Z,99049.16
2023-04-05T01:59:57.413Z,99048.63
2023-04-05T02:02:23.949Z,99044.69
2023-04-05T02:04:50.477Z,99046.56
2023-04-05T02:07:17.035Z,99038.56
2023-04-05T02:09:43.510Z,99036.19
2023-04-05T02:12:12.318Z,99042.06
2023-04-05T02:14:38.802Z,99036.91
2023-04-05T02:17:05.636Z,99049.34
2023-04-05T02:19:37.171Z,99039.31
2023-04-05T02:22:03.832Z,99035.28
2023-04-05T02:24:30.434Z,99027.41
2023-04-05T02:26:57.493Z,99029.47
2023-04-05T02:29:24.410Z,99030.06
2023-04-05T02:31:50.907Z,99033.72
2023-04-05T02:34:17.431Z,99033.97
2023-04-05T02:36:44.131Z,99032.38
2023-04-05T02:39:10.728Z,99026.94
2023-04-05T02:41:38.129Z,99027.75
2023-04-05T02:44:04.756Z,99022.66
2023-04-05T02:46:31.197Z,99026.06
2023-04-05T02:48:58.958Z,99029.28
2023-04-05T02:51:28.513Z,99022.00
2023-04-05T02:53:55.461Z,99021.34
2023-04-05T02:56:22.095Z,99019.88
2023-04-05T02:58:49.305Z,99024.94
2023-04-05T03:01:20.981Z,99013.44
2023-04-05T03:03:47.489Z,99016.41
2023-04-05T03:06:15.551Z,99007.78
2023-04-05T03:08:48.988Z,99006.06
2023-04-05T03:11:20.743Z,99013.63
2023-04-05T03:13:51.432Z,99007.03
2023-04-05T03:16:40.897Z,99012.66
2023-04-05T03:19:18.711Z,99014.13
2023-04-05T03:21:46.296Z,99017.84
2023-04-05T03:24:35.417Z,99015.75
2023-04-05T03:27:06.073Z,99016.38
2023-04-05T03:29:39.196Z,99008.03
2023-04-05T03:32:13.845Z,99006.16
2023-04-05T03:34:46.791Z,99013.09
2023-04-05T03:37:15.398Z,99020.41
2023-04-05T03:39:48.359Z,99016.34
2023-04-05T03:42:16.406Z,99018.06
2023-04-05T03:44:44.259Z,99021.56
2023-04-05T03:47:10.942Z,99023.81
2023-04-05T03:49:39.620Z,99016.63
2023-04-05T03:52:06.527Z,99025.09
2023-04-05T03:54:33.028Z,99021.16
2023-04-05T03:57:01.145Z,99021.22
2023-04-05T03:59:28.771Z,99012.31
2023-04-05T04:01:55.342Z,99007.91
2023-04-05T04:04:23.930Z,99003.84
2023-04-05T04:06:50.913Z,99011.44
2023-04-05T04:09:22.919Z,99009.81
2023-04-05T04:11:49.572Z,99009.88
2023-04-05T04:14:19.791Z,99008.25
2023-04-05T04:17:01.790Z,99006.00
2023-04-05T04:19:57.785Z,99006.94
2023-04-05T04:22:48.709Z,98998.84
2023-04-05T04:25:30.872Z,99005.63
2023-04-05T04:28:17.823Z,99008.03
2023-04-05T04:31:04.910Z,99009.00
2023-04-05T04:33:50.599Z,99014.31
2023-04-05T04:36:42.796Z,99011.09
2023-04-05T04:39:45.006Z,99016.69
2023-04-05T04:42:39.083Z,99016.53
2023-04-05T04:45:18.468Z,99016.06
2023-04-05T04:48:06.496Z,99008.69
2023-04-05T04:50:45.523Z,99016.06
2023-04-05T04:53:13.611Z,99006.41
2023-04-05T04:55:43.479Z,99016.88
2023-04-05T04:58:11.943Z,99015.84
2023-04-05T05:00:44.543Z,99013.91
2023-04-05T05:03:11.913Z,99019.19
2023-04-05T05:05:50.221Z,99021.56
2023-04-05T05:08:21.896Z,99020.66
2023-04-05T05:10:52.370Z,99016.59
2023-04-05T05:13:19.009Z,99023.22
2023-04-05T05:15:45.524Z,99022.13
2023-04-05T05:18:12.466Z,99026.72
2023-04-05T05:20:39.430Z,99025.44
2023-04-05T05:23:06.369Z,99021.84
2023-04-05T05:25:32.838Z,99026.31
2023-04-05T05:27:59.920Z,99031.50
2023-04-05T05:30:28.709Z,99030.03
2023-04-05T05:32:55.347Z,99030.28
2023-04-05T05:35:21.893Z,99021.91
2023-04-05T05:37:50.730Z,99026.19
2023-04-05T05:40:17.206Z,99029.22
2023-04-05T05:42:43.643Z,99028.03
2023-04-05T05:45:10.688Z,99015.81
2023-04-05T05:47:37.223Z,99015.84
2023-04-05T05:50:04.502Z,99014.19
2023-04-05T05:52:31.414Z,99011.56
2023-04-05T05:54:57.858Z,99016.97
2023-04-05T05:57:24.566Z,99017.19
2023-04-05T05:59:51.005Z,99011.50
2023-04-05T06:02:17.463Z,99020.50
2023-04-05T06:04:44.041Z,99025.06
2023-04-05T06:07:11.079Z,99031.84
2023-04-05T06:09:37.859Z,99031.78
2023-04-05T06:12:04.392Z,99023.81
2023-04-05T06:14:31.155Z,99024.72
2023-04-05T06:16:58.125Z,99019.81
2023-04-05T06:19:24.559Z,99012.63
2023-04-05T06:21:51.464Z,99009.75
2023-04-05T06:24:17.980Z,99014.03
2023-04-05T06:26:44.454Z,99011.38
2023-04-05T06:29:11.248Z,99014.31
2023-04-05T06:31:37.821Z,99015.41
2023-04-05T06:34:04.331Z,99013.72
2023-04-05T06:36:34.604Z,99015.88
2023-04-05T06:39:01.533Z,99015.53
2023-04-05T06:41:28.123Z,99012.00
2023-04-05T06:43:55.522Z,99006.72
2023-04-05T06:46:22.779Z,99011.59
2023-04-05T06:48:49.986Z,99011.97
2023-04-05T06:51:16.856Z,99006.91
2023-04-05T06:53:43.371Z,99007.16
2023-04-05T06:56:09.941Z,99011.31
2023-04-05T06:58:36.722Z,99013.34
2023-04-05T07:01:03.998Z,99007.72
2023-04-05T07:03:30.990Z,99008.66
2023-04-05T07:05:59.338Z,98999.31
2023-04-05T07:08:27.866Z,98991.94
2023-04-05T07:10:55.321Z,98998.47
2023-04-05T07:13:23.252Z,98998.09
2023-04-05T07:15:50.044Z,98996.38
2023-04-05T07:18:17.074Z,98993.09
2023-04-05T07:20:46.924Z,98995.50
2023-04-05T07:23:13.376Z,98989.59
2023-04-05T07:25:41.104Z,98995.03
2023-04-05T07:28:07.749Z,98991.72
2023-04-05T07:30:34.224Z,98990.59
2023-04-05T07:33:00.912Z,98998.19
2023-04-05T07:35:28.468Z,98999.53
2023-04-05T07:37:54.998Z,98996.91
2023-04-05T07:40:25.836Z,98992.84
2023-04-05T07:42:59.741Z,98996.50
2023-04-05T07:45:27.206Z,98995.66
2023-04-05T07:47:53.681Z,98988.22
2023-04-05T07:50:20.617Z,98994.47
2023-04-05T07:52:47.088Z,98992.00
2023-04-05T07:55:13.641Z,98987.28
2023-04-05T07:57:40.247Z,98983.69
2023-04-05T08:00:12.221Z,98981.16
2023-04-05T08:02:42.373Z,98988.38
2023-04-05T08:05:09.072Z,98985.59
2023-04-05T08:07:35.603Z,98985.25
2023-04-05T08:10:02.457Z,98986.13
2023-04-05T08:12:31.162Z,98980.22
2023-04-05T08:14:57.843Z,98977.56
2023-04-05T08:17:27.055Z,98972.56
2023-04-05T08:19:54.394Z,98969.19
2023-04-05T08:22:21.093Z,98968.28
2023-04-05T08:24:47.628Z,98968.78
2023-04-05T08:27:14.151Z,98973.25
2023-04-05T08:29:40.770Z,98975.38
2023-04-05T08:32:08.944Z,98969.06
2023-04-05T08:34:35.581Z,98962.50
2023-04-05T08:37:02.033Z,98964.91
2023-04-05T08:39:28.592Z,98954.53
2023-04-05T08:42:08.503Z,98958.34
2023-04-05T08:44:36.984Z,98964.81
2023-04-05T08:47:03.496Z,98961.56
2023-04-05T08:49:29.949Z,98962.09
2023-04-05T08:51:58.902Z,98962.41
2023-04-05T08:54:25.545Z,98963.34
2023-04-05T08:56:54.503Z,98962.03
2023-04-05T08:59:22.158Z,98967.59
2023-04-05T09:01:50.238Z,98954.25
2023-04-05T09:04:20.745Z,98964.03
2023-04-05T09:06:50.030Z,98964.19
2023-04-05T09:09:18.624Z,98959.53
2023-04-05T09:11:45.266Z,98967.56
2023-04-05T09:14:12.264Z,98969.34
2023-04-05T09:16:40.588Z,98976.75
2023-04-05T09:19:08.315Z,98967.53
2023-04-05T09:22:04.082Z,98962.41
2023-04-05T09:24:41.685Z,98966.69
2023-04-05T09:27:19.203Z,98957.88
2023-04-05T09:29:53.397Z,98966.94
2023-04-05T09:32:21.186Z,98944.00
2023-04-05T09:34:48.146Z,98952.19
2023-04-05T09:37:22.287Z,98946.97
2023-04-05T09:39:51.551Z,98951.16
2023-04-05T09:42:22.719Z,98949.19
2023-04-05T09:44:51.209Z,98941.50
2023-04-05T09:47:19.377Z,98939.72
2023-04-05T09:49:47.753Z,98942.47
2023-04-05T09:52:18.897Z,98940.31
2023-04-05T09:54:45.474Z,98943.44
2023-04-05T09:57:12.111Z,98942.84
2023-04-05T09:59:41.751Z,98935.50
2023-04-05T10:02:10.423Z,98938.22
2023-04-05T10:04:44.885Z,98935.06
2023-04-05T10:07:13.924Z,98928.09
2023-04-05T10:09:42.135Z,98930.63
2023-04-05T10:12:10.505Z,98915.13
2023-04-05T10:14:37.856Z,98925.97
2023-04-05T10:17:20.115Z,98928.13
2023-04-05T10:20:17.112Z,98923.59
2023-04-05T10:22:52.455Z,98923.56
2023-04-05T10:25:46.899Z,98921.41
2023-04-05T10:28:41.421Z,98908.94
2023-04-05T10:31:07.821Z,98907.94
2023-04-05T10:33:44.214Z,98895.91
2023-04-05T10:36:37.948Z,98899.25
2023-04-05T10:39:17.207Z,98905.94
2023-04-05T10:41:54.216Z,98909.13
2023-04-05T10:44:26.409Z,98920.53
2023-04-05T10:46:55.618Z,98912.63
2023-04-05T10:49:23.294Z,98909.16
2023-04-05T10:51:50.805Z,98909.59
2023-04-05T10:54:19.461Z,98910.97
2023-04-05T10:56:46.715Z,98911.47
2023-04-05T10:59:13.946Z,98910.88
2023-04-05T11:01:42.088Z,98902.06
2023-04-05T11:04:16.267Z,98899.25
2023-04-05T11:06:43.749Z,98891.69
2023-04-05T11:09:21.104Z,98898.63
2023-04-05T11:11:49.429Z,98885.25
2023-04-05T11:14:22.057Z,98885.38
2023-04-05T11:16:53.369Z,98877.66
2023-04-05T11:19:20.692Z,98877.72
2023-04-05T11:21:47.507Z,98885.41
2023-04-05T11:24:18.794Z,98888.84
2023-04-05T11:26:48.087Z,98883.38
2023-04-05T11:29:17.593Z,98876.84
2023-04-05T11:32:01.142Z,98873.16
2023-04-05T11:34:27.618Z,98867.31
2023-04-05T11:36:54.282Z,98855.41
2023-04-05T11:39:23.947Z,98856.44
2023-04-05T11:42:03.790Z,98846.44
2023-04-05T11:44:40.781Z,98852.56
2023-04-05T11:47:07.590Z,98845.25
2023-04-05T11:49:34.664Z,98835.50
2023-04-05T11:52:14.054Z,98843.81
2023-04-05T11:54:45.982Z,98841.19
2023-04-05T11:57:20.065Z,98835.47
2023-04-05T11:59:46.858Z,98832.88
2023-04-05T12:02:13.286Z,98834.47
2023-04-05T12:04:40.616Z,98827.34
2023-04-05T12:07:18.176Z,98823.16
2023-04-05T12:10:03.476Z,98821.72
2023-04-05T12:12:38.304Z,98825.00
2023-04-05T12:15:08.296Z,98821.56
2023-04-05T12:17:46.990Z,98815.13
2023-04-05T12:20:16.232Z,98809.81
2023-04-05T12:22:44.205Z,98812.28
2023-04-05T12:25:12.016Z,98806.06
2023-04-05T12:27:39.347Z,98799.53
2023-04-05T12:30:17.806Z,98811.53
2023-04-05T12:32:46.631Z,98808.72
2023-04-05T12:35:15.923Z,98802.56
2023-04-05T12:37:42.492Z,98806.69
2023-04-05T12:40:10.227Z,98798.31
2023-04-05T12:42:40.789Z,98800.19
2023-04-05T12:45:12.937Z,98807.16
2023-04-05T12:47:50.840Z,98797.06
2023-04-05T12:50:18.695Z,98791.75
2023-04-05T12:52:59.558Z,98798.34
2023-04-05T12:55:29.029Z,98783.66
2023-04-05T12:57:59.537Z,98791.75
2023-04-05T13:00:28.093Z,98781.56
2023-04-05T13:02:56.158Z,98779.94
2023-04-05T13:05:25.164Z,98780.19
2023-04-05T13:07:51.935Z,98772.19
2023-04-05T13:10:20.561Z,98772.66
2023-04-05T13:12:47.495Z,98773.22
2023-04-05T13:15:15.340Z,98773.31
2023-04-05T13:17:42.812Z,98768.16
2023-04-05T13:20:10.340Z,98763.91
2023-04-05T13:22:37.177Z,98764.41
2023-04-05T13:25:04.543Z,98757.53
2023-04-05T13:27:31.230Z,98753.38
2023-04-05T13:29:57.800Z,98746.81
2023-04-05T13:32:24.438Z,98744.75
2023-04-05T13:34:51.028Z,98758.25
2023-04-05T13:37:17.487Z,98749.13
2023-04-05T13:39:44.114Z,98757.66
2023-04-05T13:42:10.810Z,98748.66
2023-04-05T13:44:38.245Z,98753.63
2023-04-05T13:47:04.800Z,98748.13
2023-04-05T13:49:31.245Z,98744.22
2023-04-05T13:51:57.666Z,98744.63
2023-04-05T13:54:24.118Z,98741.31
2023-04-05T13:56:50.582Z,98738.66
2023-04-05T13:59:17.316Z,98737.06
2023-04-05T14:01:43.881Z,98745.63
2023-04-05T14:04:10.983Z,98737.91
2023-04-05T14:06:37.748Z,98739.28
2023-04-05T14:09:04.827Z,98747.41
2023-04-05T14:11:35.818Z,98750.03
2023-04-05T14:14:02.896Z,98743.50
2023-04-05T14:16:29.976Z,98743.94
2023-04-05T14:18:56.739Z,98740.00
2023-04-05T14:21:24.534Z,98735.44
2023-04-05T14:23:54.251Z,98734.72
2023-04-05T14:26:20.702Z,98738.78
2023-04-05T14:29:19.111Z,98731.53
2023-04-05T14:31:45.686Z,98725.66
2023-04-05T14:34:12.267Z,98725.66
2023-04-05T14:36:38.718Z,98716.84
2023-04-05T14:39:05.325Z,98723.84
2023-04-05T14:41:32.228Z,98723.31
2023-04-05T14:43:59.166Z,98721.66
2023-04-05T14:46:25.746Z,98713.59
2023-04-05T14:48:52.283Z,98706.78
2023-04-05T14:51:18.820Z,98709.25
2023-04-05T14:53:45.284Z,98707.34
2023-04-05T14:56:12.120Z,98709.06
2023-04-05T14:58:38.534Z,98707.78
2023-04-05T15:01:05.245Z,98700.84
2023-04-05T15:03:31.877Z,98703.66
2023-04-05T15:05:58.353Z,98705.16
2023-04-05T15:08:24.827Z,98696.69
2023-04-05T15:10:51.280Z,98688.75
2023-04-05T15:13:19.731Z,98700.06
2023-04-05T15:15:46.232Z,98703.84
2023-04-05T15:18:12.835Z,98698.81
2023-04-05T15:20:39.267Z,98697.59
2023-04-05T15:23:05.743Z,98688.63
2023-04-05T15:25:32.175Z,98690.78
2023-04-05T15:28:02.297Z,98688.13
2023-04-05T15:30:29.890Z,98695.34
2023-04-05T15:32:56.368Z,98684.06
2023-04-05T15:35:23.000Z,98681.47
2023-04-05T15:37:49.486Z,98686.22
2023-04-05T15:40:16.367Z,98685.03
2023-04-05T15:42:42.808Z,98686.66
2023-04-05T15:45:09.818Z,98676.06
2023-04-05T15:47:36.444Z,98674.28
2023-04-05T15:50:06.260Z,98671.34
2023-04-05T15:52:33.992Z,98672.81
2023-04-05T15:55:00.650Z,98670.44
2023-04-05T15:57:27.116Z,98671.00
2023-04-05T15:59:54.413Z,98665.66
2023-04-05T16:02:20.886Z,98667.66
2023-04-05T16:04:47.445Z,98670.94
2023-04-05T16:07:16.727Z,98665.13
2023-04-05T16:09:43.302Z,98671.50
2023-04-05T16:12:09.766Z,98667.28
2023-04-05T16:14:36.276Z,98673.06
2023-04-05T16:17:02.775Z,98669.50
2023-04-05T16:19:29.288Z,98660.25
2023-04-05T16:21:55.831Z,98670.19
2023-04-05T16:24:22.469Z,98666.88
2023-04-05T16:26:48.850Z,98670.03
2023-04-05T16:29:15.254Z,98670.66
2023-04-05T16:31:46.936Z,98668.72
2023-04-05T16:34:13.970Z,98677.38
2023-04-05T16:36:41.256Z,98669.09
2023-04-05T16:39:07.750Z,98670.00
2023-04-05T16:41:36.138Z,98674.06
2023-04-05T16:44:03.039Z,98667.06
2023-04-05T16:46:32.028Z,98667.97
2023-04-05T16:49:00.348Z,98666.75
2023-04-05T16:51:28.004Z,98665.03
2023-04-05T16:53:55.636Z,98670.78
2023-04-05T16:56:23.355Z,98667.22
2023-04-05T16:58:49.831Z,98660.66
2023-04-05T17:01:16.308Z,98668.34
2023-04-05T17:03:46.842Z,98670.31
2023-04-05T17:06:14.328Z,98667.69
2023-04-05T17:08:41.005Z,98674.16
2023-04-05T17:11:07.668Z,98671.16
2023-04-05T17:13:34.162Z,98665.38
2023-04-05T17:16:00.826Z,98674.47
2023-04-05T17:18:27.615Z,98675.28
2023-04-05T17:20:54.066Z,98670.47
2023-04-05T17:23:20.572Z,98676.41
2023-04-05T17:25:47.010Z,98673.22
2023-04-05T17:28:13.463Z,98673.91
2023-04-05T17:30:39.986Z,98676.09
2023-04-05T17:33:06.614Z,98673.50
2023-04-05T17:35:33.151Z,98683.53
2023-04-05T17:37:59.635Z,98678.75
2023-04-05T17:40:26.078Z,98677.28
2023-04-05T17:42:52.538Z,98680.75
2023-04-05T17:45:18.950Z,98682.44
2023-04-05T17:47:45.507Z,98680.16
2023-04-05T17:50:12.031Z,98677.72
2023-04-05T17:52:38.549Z,98679.38
2023-04-05T17:55:05.731Z,98675.25
2023-04-05T17:57:32.246Z,98678.38
2023-04-05T17:59:59.329Z,98677.06
2023-04-05T18:02:31.160Z,98680.81
2023-04-05T18:04:59.438Z,98692.16
2023-04-05T18:07:27.355Z,98687.72
2023-04-05T18:09:53.884Z,98680.63
2023-04-05T18:12:22.014Z,98689.31
2023-04-05T18:14:48.652Z,98684.03
2023-04-05T18:17:15.308Z,98686.25
2023-04-05T18:19:42.196Z,98688.47
2023-04-05T18:22:08.632Z,98696.78
2023-04-05T18:24:35.415Z,98705.56
2023-04-05T18:27:02.128Z,98706.47
2023-04-05T18:29:30.873Z,98715.56
2023-04-05T18:32:12.232Z,98710.56
2023-04-05T18:34:38.918Z,98724.56
2023-04-05T18:37:05.674Z,98730.31
2023-04-05T18:39:32.406Z,98725.75
2023-04-05T18:41:59.070Z,98729.75
2023-04-05T18:44:26.038Z,98723.25
2023-04-05T18:46:53.653Z,98729.22
2023-04-05T18:49:21.914Z,98731.00
2023-04-05T18:51:48.852Z,98732.94
2023-04-05T18:54:18.176Z,98744.28
2023-04-05T18:56:45.424Z,98743.47
2023-04-05T18:59:12.349Z,98748.84
2023-04-05T19:01:38.929Z,98744.88
2023-04-05T19:04:06.004Z,98751.66
2023-04-05T19:06:34.983Z,98752.38
2023-04-05T19:09:01.919Z,98748.22
2023-04-05T19:11:28.516Z,98750.19
2023-04-05T19:13:55.320Z,98751.88
2023-04-05T19:16:21.762Z,98756.03
2023-04-05T19:18:48.296Z,98758.25
2023-04-05T19:21:15.113Z,98764.31
2023-04-05T19:23:41.983Z,98758.03
2023-04-05T19:26:08.395Z,98759.56
2023-04-05T19:28:34.850Z,98760.69
2023-04-05T19:31:01.320Z,98761.13
2023-04-05T19:33:30.251Z,98762.50
2023-04-05T19:35:57.804Z,98756.75
2023-04-05T19:38:24.321Z,98759.72
2023-04-05T19:40:50.937Z,98764.53
2023-04-05T19:43:17.480Z,98764.28
2023-04-05T19:45:44.255Z,98769.69
2023-04-05T19:48:37.588Z,98771.72
2023-04-05T19:51:06.836Z,98763.91
2023-04-05T19:53:39.336Z,98765.56
2023-04-05T19:56:12.541Z,98759.94
2023-04-05T19:58:39.117Z,98758.69
2023-04-05T20:01:06.760Z,98761.59
2023-04-05T20:03:36.159Z,98758.00
2023-04-05T20:06:08.014Z,98753.06
2023-04-05T20:08:37.303Z,98756.25
2023-04-05T20:11:19.313Z,98755.69
2023-04-05T20:13:52.244Z,98753.50
2023-04-05T20:16:25.548Z,98754.34
2023-04-05T20:18:52.808Z,98759.78
2023-04-05T20:21:19.706Z,98758.97
2023-04-05T20:23:47.273Z,98748.81
2023-04-05T20:26:16.002Z,98754.03
2023-04-05T20:28:53.248Z,98753.78
2023-04-05T20:31:25.880Z,98764.72
2023-04-05T20:34:09.465Z,98759.09
2023-04-05T20:36:37.971Z,98752.66
2023-04-05T20:39:06.485Z,98754.44
2023-04-05T20:41:33.275Z,98761.56
2023-04-05T20:44:00.440Z,98753.75
2023-04-05T20:46:27.857Z,98742.66
2023-04-05T20:48:57.952Z,98750.34
2023-04-05T20:51:24.717Z,98749.78
2023-04-05T20:53:51.250Z,98742.38
2023-04-05T20:56:18.032Z,98744.00
2023-04-05T20:58:44.600Z,98753.94
2023-04-05T21:01:11.521Z,98749.19
2023-04-05T21:03:40.530Z,98750.44
2023-04-05T21:06:09.018Z,98747.97
2023-04-05T21:08:37.143Z,98750.94
2023-04-05T21:11:04.915Z,98757.41
2023-04-05T21:13:31.578Z,98753.22
2023-04-05T21:15:58.333Z,98749.81
2023-04-05T21:18:25.573Z,98748.75
2023-04-05T21:20:53.548Z,98743.22
2023-04-05T21:23:22.451Z,98745.25
2023-04-05T21:25:49.723Z,98750.19
2023-04-05T21:28:16.533Z,98741.28
2023-04-05T21:30:43.632Z,98743.34
2023-04-05T21:33:10.609Z,98744.16
2023-04-05T21:35:37.212Z,98744.56
2023-04-05T21:38:03.809Z,98746.03
2023-04-05T21:40:30.670Z,98742.72
2023-04-05T21:42:57.596Z,98742.56
2023-04-05T21:45:24.427Z,98742.56
2023-04-05T21:47:51.180Z,98741.25
2023-04-05T21:50:17.817Z,98741.16
2023-04-05T21:52:45.346Z,98751.19
2023-04-05T21:55:12.501Z,98747.25
2023-04-05T21:57:39.036Z,98759.69
2023-04-05T22:00:10.841Z,98761.53
2023-04-05T22:02:41.223Z,98760.44
2023-04-05T22:05:08.501Z,98749.53
2023-04-05T22:07:35.871Z,98751.19
2023-04-05T22:10:03.245Z,98750.78
2023-04-05T22:12:29.796Z,98757.09
2023-04-05T22:14:56.516Z,98759.63
2023-04-05T22:17:23.337Z,98753.81
2023-04-05T22:19:49.888Z,98748.78
2023-04-05T22:22:17.333Z,98759.25
2023-04-05T22:24:44.162Z,98754.84
2023-04-05T22:27:11.862Z,98753.81
2023-04-05T22:29:38.654Z,98759.03
2023-04-05T22:32:05.672Z,98752.44
2023-04-05T22:34:32.165Z,98754.81
2023-04-05T22:36:58.695Z,98753.97
2023-04-05T22:39:25.359Z,98753.50
2023-04-05T22:41:51.791Z,98748.66
2023-04-05T22:44:18.281Z,98751.44
2023-04-05T22:46:44.766Z,98741.06
2023-04-05T22:49:11.205Z,98746.75
2023-04-05T22:51:37.654Z,98741.00
2023-04-05T22:54:04.202Z,98740.66
2023-04-05T22:56:31.520Z,98741.28
2023-04-05T22:58:58.137Z,98741.56
2023-04-05T23:01:24.794Z,98733.81
2023-04-05T23:03:51.494Z,98740.84
2023-04-05T23:06:17.959Z,98740.19
2023-04-05T23:08:44.414Z,98743.38
2023-04-05T23:11:10.935Z,98739.13
2023-04-05T23:13:37.379Z,98745.03
2023-04-05T23:16:04.325Z,98741.72
2023-04-05T23:18:30.985Z,98745.13
2023-04-05T23:20:57.495Z,98746.31
2023-04-05T23:23:24.022Z,98739.56
2023-04-05T23:25:51.099Z,98741.56
2023-04-05T23:28:17.587Z,98738.47
2023-04-05T23:30:44.053Z,98736.38
2023-04-05T23:33:12.979Z,98733.16
2023-04-05T23:35:40.553Z,98736.44
2023-04-05T23:38:07.344Z,98733.47
2023-04-05T23:40:34.010Z,98727.56
2023-04-05T23:43:00.690Z,98734.16
2023-04-05T23:45:27.524Z,98730.97
2023-04-05T23:47:55.484Z,98735.34
2023-04-05T23:50:22.360Z,98728.16
2023-04-05T23:52:49.147Z,98725.00
2023-04-05T23:55:15.952Z,98729.94
2023-04-05T23:57:42.407Z,98727.56
